Time;durP1;ratioP1;P1;durP2;ratioP2;P2;SDS_P1;SDS_P2;PMS_P1;PMS_P2;Temp;Humidity;BMP_temperature;BMP_pressure;BME280_temperature;BME280_humidity;BME280_pressure;Samples;Min_cycle;Max_cycle;Signal;HPM_P1;HPM_P2
2023/08/15 00:00:36;;;;;;;2.17;1.97;;;;;;;23.52;69.69;98711.75;5148968;27;42655;-83
2023/08/15 00:03:04;;;;;;;2.80;2.20;;;;;;;23.57;69.48;98724.75;5109677;28;42240;-82
2023/08/15 00:05:31;;;;;;;2.53;2.00;;;;;;;23.53;69.72;98728.81;5106169;27;39940;-84
2023/08/15 00:08:03;;;;;;;2.30;1.40;;;;;;;23.50;69.42;98729.16;5114704;27;41694;-85
2023/08/15 00:10:31;;;;;;;1.93;1.80;;;;;;;23.48;69.78;98718.53;5095138;28;41964;-83
2023/08/15 00:12:58;;;;;;;2.17;1.97;;;;;;;23.47;70.00;98724.13;5116084;27;42929;-82
2023/08/15 00:15:27;;;;;;;2.63;1.80;;;;;;;23.44;71.29;98721.78;5113219;28;39136;-82
2023/08/15 00:17:55;;;;;;;2.23;2.03;;;;;;;23.41;70.96;98714.03;5115717;27;42020;-85
2023/08/15 00:20:23;;;;;;;2.57;2.37;;;;;;;23.39;72.05;98716.91;5097790;27;42833;-86
2023/08/15 00:22:50;;;;;;;2.23;1.93;;;;;;;23.32;72.00;98704.31;5114421;27;41549;-84
2023/08/15 00:25:18;;;;;;;3.17;2.10;;;;;;;23.32;71.49;98715.97;5134596;27;39885;-83
2023/08/15 00:27:45;;;;;;;2.83;2.63;;;;;;;23.21;71.39;98701.00;5132094;27;41636;-86
2023/08/15 00:30:13;;;;;;;2.10;2.00;;;;;;;23.27;71.31;98712.94;5096645;27;41462;-82
2023/08/15 00:32:44;;;;;;;2.87;2.13;;;;;;;23.23;71.24;98715.19;5096431;27;40791;-82
2023/08/15 00:35:11;;;;;;;2.20;2.00;;;;;;;23.11;71.45;98697.72;5098564;27;39857;-82
2023/08/15 00:37:39;;;;;;;2.20;2.00;;;;;;;23.06;71.50;98693.84;5112834;27;41841;-83
2023/08/15 00:40:08;;;;;;;2.77;1.97;;;;;;;23.03;71.59;98689.63;5098832;27;41496;-84
2023/08/15 00:42:35;;;;;;;2.10;1.90;;;;;;;23.11;71.61;98718.47;5099849;27;43460;-84
2023/08/15 00:45:04;;;;;;;2.10;1.90;;;;;;;23.08;72.06;98708.88;5116990;27;39691;-82
2023/08/15 00:47:31;;;;;;;2.93;1.80;;;;;;;23.07;71.94;98696.38;5125934;27;41965;-85
2023/08/15 00:50:02;;;;;;;2.07;1.87;;;;;;;23.02;71.92;98685.25;5095998;28;41555;-83
2023/08/15 00:52:29;;;;;;;2.37;1.90;;;;;;;23.03;71.90;98695.03;5115021;28;42440;-83
2023/08/15 00:55:08;;;;;;;2.13;2.00;;;;;;;22.93;71.90;98686.34;5117515;27;40991;-82
2023/08/15 00:57:46;;;;;;;3.10;1.57;;;;;;;22.86;71.92;98678.13;5100486;27;41518;-81
2023/08/15 01:00:15;;;;;;;2.20;2.00;;;;;;;22.91;71.99;98686.50;5099821;27;42094;-84
2023/08/15 01:02:43;;;;;;;2.53;2.33;;;;;;;22.90;73.01;98683.97;5100653;27;41341;-81
2023/08/15 01:05:15;;;;;;;2.10;1.87;;;;;;;22.88;73.29;98680.63;5100353;27;39001;-82
2023/08/15 01:07:43;;;;;;;2.73;1.67;;;;;;;22.76;72.98;98671.22;5100626;27;41864;-84
2023/08/15 01:10:11;;;;;;;2.20;2.00;;;;;;;22.83;73.03;98688.44;5098156;27;42055;-82
2023/08/15 01:12:44;;;;;;;2.23;2.03;;;;;;;22.71;73.00;98668.22;5115764;27;43151;-81
2023/08/15 01:15:19;;;;;;;2.50;1.80;;;;;;;22.79;72.63;98676.28;5099031;27;38936;-84
2023/08/15 01:17:54;;;;;;;2.10;1.90;;;;;;;22.45;72.63;98623.47;5098577;27;40753;-85
2023/08/15 01:20:28;;;;;;;2.13;1.80;;;;;;;22.65;72.53;98658.94;5113891;27;43719;-84
2023/08/15 01:23:01;;;;;;;2.13;1.73;;;;;;;22.66;72.55;98665.19;5099110;27;41150;-85
2023/08/15 01:25:32;;;;;;;2.43;1.70;;;;;;;22.70;72.45;98675.47;5098405;27;39951;-82
2023/08/15 01:28:00;;;;;;;2.27;1.80;;;;;;;22.56;72.61;98660.88;5097744;27;41061;-82
2023/08/15 01:30:27;;;;;;;1.87;1.47;;;;;;;22.56;72.50;98657.31;5098426;27;43254;-84
2023/08/15 01:33:05;;;;;;;2.10;1.57;;;;;;;22.63;72.85;98671.78;5098812;27;41468;-83
2023/08/15 01:35:36;;;;;;;2.17;1.97;;;;;;;22.52;72.65;98664.06;5098634;27;39208;-84
2023/08/15 01:38:16;;;;;;;2.33;1.53;;;;;;;22.46;72.73;98654.84;5112717;27;42448;-83
2023/08/15 01:40:47;;;;;;;2.10;1.90;;;;;;;22.55;72.72;98675.38;5098952;27;41994;-82
2023/08/15 01:43:17;;;;;;;1.93;1.80;;;;;;;22.52;72.54;98681.13;5100079;27;41184;-82
2023/08/15 01:45:44;;;;;;;2.30;2.10;;;;;;;22.39;72.54;98664.66;5099563;27;38662;-82
2023/08/15 01:48:12;;;;;;;2.10;1.90;;;;;;;22.49;72.53;98686.88;5099812;27;40877;-84
2023/08/15 01:50:39;;;;;;;3.43;1.97;;;;;;;22.45;72.52;98680.16;5116726;27;42786;-82
2023/08/15 01:53:07;;;;;;;1.60;1.50;;;;;;;22.36;72.87;98670.41;5099916;27;41087;-84
2023/08/15 01:55:34;;;;;;;1.93;1.67;;;;;;;22.25;73.44;98646.53;5134716;27;39949;-84
2023/08/15 01:58:03;;;;;;;2.40;2.20;;;;;;;22.38;74.11;98662.97;5099832;27;42006;-82
2023/08/15 02:00:31;;;;;;;2.37;2.17;;;;;;;22.39;74.34;98661.94;5099179;27;43075;-84
2023/08/15 02:02:58;;;;;;;1.90;1.70;;;;;;;22.31;74.16;98658.44;5099601;27;41134;-82
2023/08/15 02:05:26;;;;;;;2.53;1.60;;;;;;;22.31;73.98;98662.00;5099518;27;38878;-84
2023/08/15 02:07:54;;;;;;;2.43;2.20;;;;;;;22.10;73.83;98632.91;5099264;27;40867;-84
2023/08/15 02:10:21;;;;;;;2.20;1.80;;;;;;;22.25;73.89;98662.69;5097491;27;41744;-84
2023/08/15 02:12:49;;;;;;;2.13;1.93;;;;;;;22.32;74.35;98674.47;5133259;27;42181;-83
2023/08/15 02:15:18;;;;;;;2.03;1.83;;;;;;;22.31;75.22;98672.78;5097946;27;38911;-83
2023/08/15 02:17:46;;;;;;;2.10;2.00;;;;;;;22.32;75.25;98663.69;5115149;27;41580;-82
2023/08/15 02:20:13;;;;;;;2.20;2.03;;;;;;;22.31;75.20;98675.47;5114797;27;42821;-83
2023/08/15 02:22:41;;;;;;;2.60;2.23;;;;;;;22.31;75.05;98664.69;5115078;27;42387;-85
2023/08/15 02:25:09;;;;;;;2.13;1.93;;;;;;;22.18;74.88;98646.34;5114734;27;40022;-84
2023/08/15 02:27:37;;;;;;;2.67;1.90;;;;;;;22.27;74.58;98666.03;5097473;27;40759;-83
2023/08/15 02:30:05;;;;;;;2.00;1.90;;;;;;;22.17;74.91;98643.84;5097246;27;44013;-84
2023/08/15 02:32:34;;;;;;;2.27;1.80;;;;;;;22.25;75.25;98646.53;5132653;27;42273;-83
2023/08/15 02:35:02;;;;;;;2.97;1.90;;;;;;;22.24;75.22;98661.03;5114795;27;39929;-83
2023/08/15 02:37:31;;;;;;;2.57;2.30;;;;;;;22.23;75.07;98653.09;5097461;27;41780;-85
2023/08/15 02:39:59;;;;;;;2.73;1.67;;;;;;;22.21;75.07;98658.66;5114415;27;42733;-82
2023/08/15 02:42:26;;;;;;;2.00;1.90;;;;;;;22.07;74.93;98644.03;5098366;27;41001;-84
2023/08/15 02:44:54;;;;;;;1.77;1.67;;;;;;;22.14;75.31;98665.75;5098689;27;38726;-83
2023/08/15 02:47:22;;;;;;;1.80;1.70;;;;;;;22.10;75.42;98659.88;5098629;27;42002;-82
2023/08/15 02:49:51;;;;;;;2.30;1.90;;;;;;;22.07;75.39;98662.91;5098384;27;41629;-82
2023/08/15 02:52:19;;;;;;;2.20;2.00;;;;;;;22.03;75.06;98666.97;5115466;27;42030;-85
2023/08/15 02:54:46;;;;;;;2.50;1.90;;;;;;;22.00;75.16;98670.03;5096842;27;39389;-81
2023/08/15 02:57:14;;;;;;;1.63;1.53;;;;;;;21.91;75.40;98670.16;5097367;27;40193;-85
2023/08/15 02:59:41;;;;;;;2.73;2.40;;;;;;;21.90;75.74;98676.56;5097146;27;41658;-84
2023/08/15 03:02:09;;;;;;;2.33;1.80;;;;;;;21.90;75.50;98680.13;5131575;27;42291;-84
2023/08/15 03:04:37;;;;;;;1.90;1.80;;;;;;;21.85;75.93;98675.25;5097137;27;40099;-85
2023/08/15 03:07:07;;;;;;;3.03;1.70;;;;;;;21.74;76.04;98672.09;5114519;27;41800;-84
2023/08/15 03:09:34;;;;;;;1.70;1.60;;;;;;;21.66;76.38;98651.34;5114307;27;42713;-86
2023/08/15 03:12:02;;;;;;;2.20;2.00;;;;;;;21.70;77.01;98658.09;5097054;27;41390;-83
2023/08/15 03:14:30;;;;;;;2.30;2.10;;;;;;;21.75;77.73;98671.91;5132562;27;39870;-82
2023/08/15 03:16:58;;;;;;;2.60;2.00;;;;;;;21.73;77.45;98679.31;5113895;27;40754;-84
2023/08/15 03:19:26;;;;;;;2.57;1.90;;;;;;;21.70;77.32;98676.97;5114009;27;43697;-82
2023/08/15 03:21:53;;;;;;;2.50;2.30;;;;;;;21.68;77.01;98670.91;5097062;27;41303;-83
2023/08/15 03:24:22;;;;;;;2.37;2.17;;;;;;;21.56;77.26;98650.69;5080129;27;39097;-84
2023/08/15 03:26:50;;;;;;;2.30;2.10;;;;;;;21.62;76.73;98668.91;5096776;27;40927;-85
2023/08/15 03:29:18;;;;;;;3.10;1.97;;;;;;;21.64;76.66;98669.53;5113724;27;43051;-82
2023/08/15 03:31:46;;;;;;;2.27;1.67;;;;;;;21.64;76.68;98672.25;5096694;27;41393;-82
2023/08/15 03:34:13;;;;;;;2.73;2.30;;;;;;;21.62;76.65;98665.34;5113963;27;40282;-84
2023/08/15 03:36:42;;;;;;;2.20;1.67;;;;;;;21.23;76.65;98600.56;5096765;27;40904;-85
2023/08/15 03:39:09;;;;;;;3.03;2.27;;;;;;;21.61;79.05;98656.44;5096439;27;42045;-83
2023/08/15 03:41:38;;;;;;;2.90;2.30;;;;;;;21.61;78.54;98674.47;5097866;27;41127;-82
2023/08/15 03:44:06;;;;;;;2.77;2.27;;;;;;;21.58;78.25;98672.09;5117387;27;39255;-82
2023/08/15 03:46:34;;;;;;;2.63;2.43;;;;;;;21.33;78.77;98633.53;5118476;27;41844;-84
2023/08/15 03:49:02;;;;;;;2.40;2.20;;;;;;;21.59;78.32;98677.31;5101647;27;41665;-82
2023/08/15 03:51:29;;;;;;;2.20;2.00;;;;;;;21.57;78.38;98673.94;5118359;27;42310;-83
2023/08/15 03:53:58;;;;;;;2.20;2.00;;;;;;;21.57;78.24;98687.41;5101588;27;39167;-82
2023/08/15 03:56:25;;;;;;;3.00;1.90;;;;;;;21.57;78.12;98679.34;5118465;27;41982;-82
2023/08/15 03:58:54;;;;;;;1.90;1.80;;;;;;;21.55;78.25;98694.81;5118555;27;42698;-82
2023/08/15 04:01:22;;;;;;;2.10;1.93;;;;;;;21.54;77.92;98690.44;5100944;27;40893;-85
2023/08/15 04:03:51;;;;;;;2.23;2.03;;;;;;;21.52;78.14;98696.00;5118492;27;40261;-82
2023/08/15 04:06:19;;;;;;;2.03;1.93;;;;;;;21.50;77.98;98698.03;5118078;27;41444;-82
2023/08/15 04:08:47;;;;;;;1.93;1.83;;;;;;;21.50;77.80;98699.91;5117688;27;42012;-82
2023/08/15 04:11:16;;;;;;;3.03;2.03;;;;;;;21.50;78.92;98697.19;5133176;27;41609;-82
2023/08/15 04:13:44;;;;;;;2.97;2.10;;;;;;;21.31;78.38;98674.13;5099882;27;39182;-85
2023/08/15 04:16:13;;;;;;;2.23;2.03;;;;;;;21.46;78.70;98694.00;5099956;27;41132;-83
2023/08/15 04:18:40;;;;;;;1.90;1.80;;;;;;;21.60;78.02;98719.44;5116943;27;43693;-84
2023/08/15 04:21:08;;;;;;;3.90;1.93;;;;;;;21.67;77.82;98714.19;5099336;27;42459;-85
2023/08/15 04:23:35;;;;;;;3.77;2.13;;;;;;;21.64;77.56;98696.50;5117157;27;41092;-84
2023/08/15 04:26:03;;;;;;;2.30;2.10;;;;;;;21.80;77.17;98707.28;5099642;27;41876;-83
2023/08/15 04:28:31;;;;;;;2.27;1.93;;;;;;;21.88;77.42;98719.06;5098943;27;42768;-84
2023/08/15 04:30:58;;;;;;;2.10;1.80;;;;;;;21.92;77.30;98720.38;5116761;27;42305;-82
2023/08/15 04:33:27;;;;;;;2.40;2.20;;;;;;;21.68;77.41;98689.75;5116848;27;40578;-84
2023/08/15 04:35:55;;;;;;;3.17;2.20;;;;;;;21.96;77.74;98729.84;5116294;27;42605;-82
2023/08/15 04:38:22;;;;;;;2.20;2.00;;;;;;;22.06;77.92;98736.75;5116764;27;42800;-84
2023/08/15 04:40:50;;;;;;;2.13;1.93;;;;;;;22.08;77.63;98732.03;5099761;27;40828;-83
2023/08/15 04:43:18;;;;;;;2.10;2.00;;;;;;;22.16;78.24;98733.84;5117770;27;39996;-82
2023/08/15 04:45:47;;;;;;;3.20;2.20;;;;;;;22.21;77.78;98734.19;5100515;27;40357;-84
2023/08/15 04:48:14;;;;;;;2.77;2.43;;;;;;;22.16;77.86;98717.69;5117933;27;42646;-82
2023/08/15 04:50:43;;;;;;;2.57;2.03;;;;;;;22.30;78.59;98725.06;5117778;27;42272;-83
2023/08/15 04:53:12;;;;;;;2.20;2.00;;;;;;;22.30;78.29;98719.66;5100653;27;38817;-85
2023/08/15 04:55:40;;;;;;;3.50;2.60;;;;;;;22.47;77.97;98737.50;5099607;27;41260;-83
2023/08/15 04:58:09;;;;;;;2.60;2.10;;;;;;;22.53;78.35;98728.69;5100435;27;41779;-83
2023/08/15 05:00:37;;;;;;;2.30;2.10;;;;;;;22.57;78.17;98732.72;5100219;27;40937;-85
2023/08/15 05:03:06;;;;;;;2.67;2.47;;;;;;;22.48;78.53;98725.69;5100506;27;38896;-84
2023/08/15 05:05:33;;;;;;;2.70;2.50;;;;;;;22.66;78.76;98756.97;5117372;27;41407;-83
2023/08/15 05:08:03;;;;;;;2.77;2.57;;;;;;;22.69;78.47;98762.03;5100170;27;42032;-83
2023/08/15 05:10:31;;;;;;;3.20;2.30;;;;;;;22.60;78.93;98757.69;5114980;27;42104;-83
2023/08/15 05:12:59;;;;;;;2.93;2.67;;;;;;;22.61;78.95;98762.06;5116118;27;40157;-83
2023/08/15 05:15:27;;;;;;;2.07;1.90;;;;;;;22.64;79.64;98770.66;5099028;27;40758;-83
2023/08/15 05:17:57;;;;;;;3.03;2.73;;;;;;;22.57;82.16;98770.50;5116059;27;42947;-83
2023/08/15 05:20:24;;;;;;;3.33;3.00;;;;;;;22.46;81.71;98776.28;5098988;27;41195;-83
2023/08/15 05:22:53;;;;;;;2.90;2.70;;;;;;;22.40;82.25;98766.16;5116205;27;40712;-83
2023/08/15 05:25:23;;;;;;;5.30;3.50;;;;;;;22.33;82.61;98773.28;5116001;27;42476;-84
2023/08/15 05:27:51;;;;;;;3.47;3.10;;;;;;;22.34;83.23;98780.38;5098150;27;41858;-83
2023/08/15 05:30:19;;;;;;;3.23;2.73;;;;;;;22.32;83.76;98773.47;5113931;27;42135;-84
2023/08/15 05:32:46;;;;;;;4.00;2.83;;;;;;;22.48;83.87;98787.75;5116196;27;39951;-83
2023/08/15 05:35:14;;;;;;;3.20;2.90;;;;;;;22.53;83.94;98790.75;5098858;27;40752;-84
2023/08/15 05:37:42;;;;;;;2.80;2.60;;;;;;;22.53;85.40;98796.16;5098999;27;41571;-84
2023/08/15 05:40:10;;;;;;;3.37;3.07;;;;;;;22.52;84.81;98789.06;5116254;27;41278;-83
2023/08/15 05:42:40;;;;;;;2.87;2.67;;;;;;;22.67;85.05;98796.47;5100275;27;39282;-84
2023/08/15 05:45:09;;;;;;;2.50;2.37;;;;;;;22.66;84.98;98787.50;5117063;27;42464;-83
2023/08/15 05:47:36;;;;;;;3.83;3.50;;;;;;;22.85;84.56;98800.66;5099683;27;42988;-83
2023/08/15 05:50:04;;;;;;;2.80;2.60;;;;;;;22.97;84.28;98795.72;5099772;27;42017;-83
2023/08/15 05:52:32;;;;;;;3.20;3.00;;;;;;;23.03;84.30;98789.59;5117089;27;40068;-84
2023/08/15 05:54:59;;;;;;;3.20;2.90;;;;;;;23.31;83.26;98794.50;5116579;27;40715;-83
2023/08/15 05:57:27;;;;;;;2.97;2.70;;;;;;;23.52;82.57;98797.44;5099632;27;43204;-83
2023/08/15 05:59:56;;;;;;;2.80;2.60;;;;;;;23.52;82.60;98792.03;5099054;27;41105;-84
2023/08/15 06:02:24;;;;;;;3.13;2.93;;;;;;;23.56;82.44;98804.16;5116839;27;38490;-83
2023/08/15 06:04:51;;;;;;;2.93;2.73;;;;;;;23.63;82.47;98799.72;5116557;27;41614;-83
2023/08/15 06:07:19;;;;;;;2.83;2.60;;;;;;;23.82;82.64;98807.34;5115865;27;43382;-84
2023/08/15 06:09:46;;;;;;;3.50;3.10;;;;;;;23.99;82.60;98808.88;5114807;27;40990;-84
2023/08/15 06:12:14;;;;;;;3.60;3.20;;;;;;;24.12;82.10;98789.31;5097753;27;39683;-83
2023/08/15 06:14:41;;;;;;;2.70;2.50;;;;;;;24.44;82.05;98817.97;5097903;27;40491;-84
2023/08/15 06:17:12;;;;;;;3.70;3.40;;;;;;;24.58;81.22;98803.63;5097996;27;42958;-84
2023/08/15 06:19:39;;;;;;;3.97;3.50;;;;;;;25.00;80.14;98823.78;5114749;27;42613;-83
2023/08/15 06:22:07;;;;;;;7.77;2.87;;;;;;;25.18;79.27;98812.56;5098084;27;39619;-85
2023/08/15 06:24:34;;;;;;;3.47;3.17;;;;;;;25.36;78.11;98827.38;5097865;27;40477;-84
2023/08/15 06:27:03;;;;;;;3.00;2.80;;;;;;;25.36;78.07;98811.09;5098042;27;41723;-84
2023/08/15 06:29:30;;;;;;;3.40;3.10;;;;;;;25.40;77.99;98817.84;5097324;27;41515;-86
2023/08/15 06:31:59;;;;;;;3.53;3.23;;;;;;;25.70;77.74;98825.91;5114712;27;38805;-84
2023/08/15 06:34:28;;;;;;;3.67;3.37;;;;;;;26.38;75.64;98827.16;5097818;27;40666;-85
2023/08/15 06:36:55;;;;;;;3.57;3.23;;;;;;;26.78;73.92;98823.69;5098163;27;42770;-85
2023/08/15 06:39:23;;;;;;;3.47;3.17;;;;;;;26.93;73.68;98820.03;5097882;27;41396;-85
2023/08/15 06:41:50;;;;;;;4.30;3.77;;;;;;;27.43;72.28;98841.38;5134107;27;39872;-84
2023/08/15 06:44:18;;;;;;;3.20;2.97;;;;;;;27.95;69.83;98837.13;5098910;27;40343;-82
2023/08/15 06:46:46;;;;;;;3.40;3.20;;;;;;;28.01;69.26;98846.34;5098754;27;43327;-82
2023/08/15 06:49:14;;;;;;;4.23;3.83;;;;;;;27.83;69.33;98849.66;5098751;27;41391;-84
2023/08/15 06:51:44;;;;;;;3.10;2.90;;;;;;;27.64;70.01;98856.75;5115514;27;40169;-85
2023/08/15 06:54:11;;;;;;;3.60;3.30;;;;;;;27.51;70.42;98835.75;5133922;27;44282;-85
2023/08/15 06:56:39;;;;;;;3.07;2.77;;;;;;;27.56;70.56;98848.78;5098338;27;41585;-84
2023/08/15 06:59:06;;;;;;;3.17;2.90;;;;;;;27.68;70.43;98840.88;5098625;27;42311;-85
2023/08/15 07:01:34;;;;;;;3.53;3.17;;;;;;;27.77;70.35;98851.34;5115516;27;38919;-85
2023/08/15 07:04:01;;;;;;;3.20;2.90;;;;;;;27.53;69.78;98806.47;5098587;27;40749;-84
2023/08/15 07:06:29;;;;;;;3.40;3.10;;;;;;;27.73;69.88;98835.63;5115448;27;42373;-85
2023/08/15 07:08:58;;;;;;;3.70;3.30;;;;;;;27.63;69.53;98838.75;5114586;27;42324;-83
2023/08/15 07:11:26;;;;;;;3.40;2.70;;;;;;;27.56;70.04;98831.63;5113516;27;39775;-83
2023/08/15 07:13:53;;;;;;;3.40;3.10;;;;;;;27.47;70.45;98814.59;5097536;27;40374;-86
2023/08/15 07:16:23;;;;;;;3.37;3.03;;;;;;;27.45;70.20;98833.84;5097323;27;41416;-84
2023/08/15 07:18:51;;;;;;;3.53;3.10;;;;;;;27.25;70.54;98803.03;5100507;27;41563;-85
2023/08/15 07:21:18;;;;;;;3.70;3.40;;;;;;;27.31;70.43;98834.00;5101079;27;39966;-85
2023/08/15 07:23:46;;;;;;;3.37;3.10;;;;;;;27.12;70.99;98825.56;5100566;27;40547;-83
2023/08/15 07:26:15;;;;;;;2.90;2.70;;;;;;;27.16;71.38;98836.88;5117214;27;42540;-86
2023/08/15 07:28:45;;;;;;;2.77;2.47;;;;;;;27.35;71.81;98818.94;5100455;27;41022;-84
2023/08/15 07:31:12;;;;;;;3.80;3.50;;;;;;;27.75;71.47;98833.53;5100361;27;40068;-84
2023/08/15 07:33:40;;;;;;;3.23;2.93;;;;;;;28.04;71.04;98841.34;5100542;27;41225;-84
2023/08/15 07:36:08;;;;;;;5.53;3.40;;;;;;;28.16;69.57;98842.41;5100115;27;42230;-82
2023/08/15 07:38:35;;;;;;;3.83;3.50;;;;;;;28.36;69.96;98845.13;5100438;27;41154;-84
2023/08/15 07:41:03;;;;;;;3.60;3.37;;;;;;;28.42;68.25;98827.97;5118066;27;40056;-84
2023/08/15 07:43:32;;;;;;;3.73;3.27;;;;;;;28.70;68.28;98841.31;5118894;27;41833;-84
2023/08/15 07:46:00;;;;;;;4.00;3.40;;;;;;;28.89;67.76;98840.50;5101129;27;42829;-85
2023/08/15 07:48:29;;;;;;;3.60;3.30;;;;;;;29.03;68.15;98835.00;5101567;27;41271;-83
2023/08/15 07:50:57;;;;;;;3.87;3.57;;;;;;;29.29;65.20;98846.66;5118530;27;39029;-85
2023/08/15 07:53:25;;;;;;;3.23;2.93;;;;;;;29.48;64.25;98835.91;5118480;27;41766;-84
2023/08/15 07:55:52;;;;;;;2.87;2.67;;;;;;;29.59;65.67;98803.28;5118139;27;43167;-83
2023/08/15 07:58:20;;;;;;;3.47;3.07;;;;;;;30.03;65.40;98831.59;5101358;27;41398;-85
2023/08/15 08:00:49;;;;;;;3.87;3.57;;;;;;;30.20;65.14;98819.06;5118092;27;39108;-85
2023/08/15 08:03:17;;;;;;;3.37;3.17;;;;;;;30.50;61.31;98842.97;5099417;27;41029;-85
2023/08/15 08:05:45;;;;;;;3.30;3.00;;;;;;;30.56;59.90;98833.91;5116950;27;41838;-84
2023/08/15 08:08:13;;;;;;;4.13;2.80;;;;;;;30.66;57.10;98809.66;5116946;27;42986;-87
2023/08/15 08:10:41;;;;;;;3.50;2.93;;;;;;;31.28;57.38;98856.97;5116629;27;40082;-87
2023/08/15 08:13:11;;;;;;;3.13;2.83;;;;;;;31.28;55.24;98857.75;5099700;27;42208;-84
2023/08/15 08:15:39;;;;;;;3.00;2.70;;;;;;;31.33;56.53;98848.88;5098934;27;41974;-84
2023/08/15 08:18:09;;;;;;;2.97;2.73;;;;;;;31.46;55.86;98858.81;5116474;27;42029;-84
2023/08/15 08:20:36;;;;;;;2.50;2.30;;;;;;;31.66;55.88;98865.72;5116225;27;38844;-81
2023/08/15 08:23:04;;;;;;;1.90;1.80;;;;;;;31.63;53.87;98863.44;5116373;27;42247;-84
2023/08/15 08:25:32;;;;;;;1.80;1.70;;;;;;;31.88;51.70;98878.94;5099312;27;41708;-81
2023/08/15 08:27:59;;;;;;;2.43;2.03;;;;;;;32.08;51.12;98885.78;5098623;27;42307;-83
2023/08/15 08:30:27;;;;;;;2.07;1.93;;;;;;;32.38;48.19;98896.75;5113799;27;40178;-84
2023/08/15 08:32:54;;;;;;;2.30;2.10;;;;;;;32.49;46.91;98878.66;5116219;27;41975;-83
2023/08/15 08:35:23;;;;;;;2.30;2.00;;;;;;;33.26;49.27;98892.28;5098391;27;43901;-83
2023/08/15 08:37:51;;;;;;;2.10;2.00;;;;;;;33.10;46.57;98888.34;5116319;27;42121;-79
2023/08/15 08:40:19;;;;;;;2.43;2.23;;;;;;;33.38;47.32;98885.69;5135077;27;39881;-83
2023/08/15 08:42:46;;;;;;;2.40;1.70;;;;;;;34.48;44.78;98885.38;5116922;27;42024;-80
2023/08/15 08:45:14;;;;;;;2.10;1.90;;;;;;;35.16;44.45;98902.66;5135239;27;43779;-81
2023/08/15 08:47:45;;;;;;;3.57;2.20;;;;;;;35.27;42.01;98910.84;5099925;27;42594;-84
2023/08/15 08:50:13;;;;;;;2.20;2.10;;;;;;;35.29;44.00;98883.88;5114808;27;40888;-85
2023/08/15 08:52:48;;;;;;;2.60;2.40;;;;;;;35.41;43.05;98888.44;5135552;27;41761;-81
2023/08/15 08:55:16;;;;;;;2.33;2.13;;;;;;;35.27;41.67;98905.34;5114693;27;43258;-82
2023/08/15 08:57:49;;;;;;;2.77;2.10;;;;;;;35.39;40.98;98913.47;5135344;27;42108;-83
2023/08/15 09:00:18;;;;;;;2.30;2.10;;;;;;;35.79;41.35;98912.38;5100100;27;38874;-84
2023/08/15 09:02:45;;;;;;;2.22;2.05;;;;;;;36.63;39.78;98919.03;5116959;27;42702;-82
2023/08/15 09:05:13;;;;;;;1.80;1.70;;;;;;;37.92;38.90;98920.41;5116465;27;43110;-81
2023/08/15 09:07:43;;;;;;;2.50;1.67;;;;;;;39.03;35.41;98953.00;5100009;27;41040;-82
2023/08/15 09:10:10;;;;;;;1.77;1.52;;;;;;;39.92;34.82;98942.25;5097752;27;38943;-82
2023/08/15 09:12:40;;;;;;;1.60;1.50;;;;;;;40.61;34.10;98938.47;5115254;27;42790;-82
2023/08/15 09:15:09;;;;;;;1.77;1.65;;;;;;;40.19;35.12;98937.06;5115139;27;41646;-85
2023/08/15 09:17:38;;;;;;;1.80;1.70;;;;;;;40.11;34.79;98929.38;5115262;27;43119;-84
2023/08/15 09:20:12;;;;;;;2.22;1.90;;;;;;;40.03;32.99;98957.72;5115144;27;39092;-82
2023/08/15 09:22:44;;;;;;;1.85;1.75;;;;;;;41.07;33.30;98952.81;5098258;27;40614;-84
2023/08/15 09:25:12;;;;;;;1.48;1.38;;;;;;;42.44;31.88;98948.44;5097860;27;41511;-82
2023/08/15 09:27:41;;;;;;;1.35;1.27;;;;;;;43.61;29.46;98970.41;5097900;27;41289;-84
2023/08/15 09:30:10;;;;;;;2.55;1.73;;;;;;;44.23;28.71;98964.38;5114947;27;39150;-84
2023/08/15 09:32:39;;;;;;;1.67;1.58;;;;;;;46.26;26.43;98985.00;5098261;27;40424;-84
2023/08/15 09:35:10;;;;;;;1.90;1.80;;;;;;;47.86;25.25;98981.00;5114891;27;43101;-84
2023/08/15 09:37:43;;;;;;;3.03;1.85;;;;;;;48.31;23.11;98986.88;5115043;27;41420;-85
2023/08/15 09:40:12;;;;;;;1.73;1.63;;;;;;;46.74;24.43;98979.31;5112363;27;41009;-85
2023/08/15 09:42:40;;;;;;;2.00;1.90;;;;;;;45.77;25.43;98977.78;5133988;27;41598;-83
2023/08/15 09:45:09;;;;;;;1.55;1.40;;;;;;;44.20;27.31;98951.84;5116022;27;43285;-81
2023/08/15 09:47:38;;;;;;;2.15;1.45;;;;;;;42.81;29.00;98948.41;5099275;27;41630;-84
2023/08/15 09:50:08;;;;;;;2.13;1.35;;;;;;;41.79;31.99;98921.19;5116067;27;39498;-82
2023/08/15 09:52:39;;;;;;;1.60;1.50;;;;;;;40.94;32.54;98904.31;5099322;27;40706;-84
2023/08/15 09:55:11;;;;;;;1.90;1.80;;;;;;;40.06;33.46;98883.03;5116327;27;41993;-84
2023/08/15 09:57:41;;;;;;;1.83;1.70;;;;;;;39.67;34.45;98915.44;5098865;27;42243;-82
2023/08/15 10:00:11;;;;;;;2.60;2.33;;;;;;;39.25;35.45;98913.88;5134400;27;39948;-84
2023/08/15 10:02:48;;;;;;;2.25;2.05;;;;;;;38.93;35.16;98913.38;5098309;27;41746;-86
2023/08/15 10:05:21;;;;;;;2.25;2.05;;;;;;;38.65;35.13;98912.81;5112724;27;43029;-82
2023/08/15 10:07:50;;;;;;;3.40;2.15;;;;;;;38.48;36.85;98895.63;5114189;27;43008;-83
2023/08/15 10:10:20;;;;;;;2.88;2.30;;;;;;;38.23;35.80;98903.91;5114108;27;38896;-85
2023/08/15 10:12:51;;;;;;;2.80;2.42;;;;;;;37.92;36.70;98912.13;5114554;27;41326;-85
2023/08/15 10:15:21;;;;;;;2.55;2.35;;;;;;;37.56;36.05;98905.59;5111566;27;42603;-83
2023/08/15 10:17:49;;;;;;;2.25;2.05;;;;;;;37.36;37.17;98911.84;5114326;27;42564;-83
2023/08/15 10:20:20;;;;;;;3.53;2.22;;;;;;;37.27;38.23;98896.88;5097509;27;40816;-82
2023/08/15 10:22:51;;;;;;;2.60;2.40;;;;;;;37.26;37.61;98920.09;5114306;27;41257;-82
2023/08/15 10:25:33;;;;;;;2.53;2.33;;;;;;;37.56;38.41;98921.34;5114536;27;41993;-84
2023/08/15 10:28:05;;;;;;;2.22;2.03;;;;;;;37.49;37.90;98920.75;5130845;27;42354;-82
2023/08/15 10:30:33;;;;;;;2.65;2.45;;;;;;;37.42;37.82;98931.22;5132675;27;40014;-82
2023/08/15 10:33:12;;;;;;;1.90;1.80;;;;;;;37.10;37.81;98923.81;5114270;27;40529;-85
2023/08/15 10:35:47;;;;;;;2.40;2.20;;;;;;;36.86;39.10;98919.78;5097604;27;41754;-84
2023/08/15 10:38:17;;;;;;;3.53;2.37;;;;;;;36.60;38.90;98903.00;5131699;27;42478;-84
2023/08/15 10:40:47;;;;;;;2.10;2.00;;;;;;;36.72;39.58;98907.56;5114778;27;39943;-85
2023/08/15 10:43:15;;;;;;;2.47;2.27;;;;;;;36.93;39.16;98904.66;5133397;27;41801;-84
2023/08/15 10:45:45;;;;;;;3.35;2.00;;;;;;;37.15;38.53;98920.25;5115663;27;42814;-85
2023/08/15 10:48:13;;;;;;;2.58;2.38;;;;;;;37.28;38.78;98926.19;5115312;27;40950;-84
2023/08/15 10:50:48;;;;;;;2.80;2.53;;;;;;;37.15;40.11;98899.00;5098913;27;39421;-84
2023/08/15 10:53:16;;;;;;;3.43;3.03;;;;;;;37.14;39.56;98924.94;5097924;27;41273;-85
2023/08/15 10:55:47;;;;;;;4.43;3.00;;;;;;;36.96;40.09;98919.88;5115634;27;43652;-85
2023/08/15 10:58:17;;;;;;;3.30;3.00;;;;;;;36.75;39.78;98915.28;5115517;27;42087;-83
2023/08/15 11:00:46;;;;;;;3.33;2.73;;;;;;;36.55;40.30;98916.75;5115788;27;39841;-85
2023/08/15 11:03:16;;;;;;;2.83;2.63;;;;;;;36.47;40.79;98913.66;5134286;27;20233;-82
2023/08/15 11:05:44;;;;;;;3.20;2.13;;;;;;;36.33;41.29;98904.97;5098223;27;41655;-84
2023/08/15 11:08:13;;;;;;;2.23;2.10;;;;;;;36.28;41.44;98915.94;5133161;27;42517;-84
2023/08/15 11:10:49;;;;;;;2.60;2.40;;;;;;;36.03;41.03;98897.19;5113213;27;40004;-82
2023/08/15 11:13:18;;;;;;;2.40;2.20;;;;;;;35.96;41.33;98900.16;5112880;27;41831;-85
2023/08/15 11:15:46;;;;;;;3.97;2.47;;;;;;;35.93;42.18;98894.34;5092265;27;41564;-84
2023/08/15 11:18:21;;;;;;;2.20;2.10;;;;;;;36.16;42.04;98909.72;5112693;27;41086;-83
2023/08/15 11:20:51;;;;;;;2.50;2.30;;;;;;;36.24;42.35;98893.56;5092705;28;39285;-85
2023/08/15 11:23:20;;;;;;;2.73;2.10;;;;;;;36.09;41.62;98892.59;5095602;27;41083;-83
2023/08/15 11:25:50;;;;;;;2.77;2.10;;;;;;;35.95;42.73;98875.63;5104057;27;42895;-84
2023/08/15 11:28:17;;;;;;;2.67;2.47;;;;;;;35.98;43.33;98895.19;5095298;27;41473;-84
2023/08/15 11:30:45;;;;;;;2.37;2.23;;;;;;;36.16;44.43;98884.91;5113255;27;40728;-83
2023/08/15 11:33:13;;;;;;;3.20;2.33;;;;;;;36.20;43.28;98880.56;5112771;27;41700;-84
2023/08/15 11:35:41;;;;;;;2.43;2.23;;;;;;;36.28;42.04;98908.50;5122443;27;43136;-84
2023/08/15 11:38:11;;;;;;;2.90;2.60;;;;;;;36.27;41.73;98911.53;5095547;27;43707;-86
2023/08/15 11:40:39;;;;;;;3.17;2.20;;;;;;;36.21;41.13;98898.75;5096480;27;39027;-83